MSC Ines — 3EFZ3 — position and weather

sailwx.info

Track history (hours):
 
Tides and Currents Weather Stations Pressure Air Temp Water Temp Dewpoint Dewpoint Depression Visibility Wind Speed Wind Dir Waves Ship Positions

MSC Ines

Last reported at 2017-Jan-18 13:25 UTC. Time now 2017-Jan-18 14:04 UTC.
Position S 29°53' E 031°01'.

Length 349 m; draft 13.3 m.

Type: Ship (hazmat cat A). MMSI: 356112000.

Date/timePositionNaut miles runAvg speedWind from/ knotsBaromVisibWave heightAir tempDewpointWater temp
2017-Jan-18 13:25S 29°53' E 031°01'0 0.0
2017-Jan-18 12:31S 29°53' E 031°01'1 1.3
2017-Jan-18 11:29S 29°53' E 031°03'3 3.5
2017-Jan-18 10:34S 29°50' E 031°05'6 6.2
2017-Jan-18 09:33S 29°44' E 031°08'0 0.1
2017-Jan-18 08:32S 29°44' E 031°08'0 0.0
2017-Jan-18 07:32S 29°44' E 031°08'0 0.0
2017-Jan-18 06:32S 29°44' E 031°08'0 0.0
2017-Jan-18 05:32S 29°44' E 031°08'0 0.0
2017-Jan-18 04:32S 29°44' E 031°08'0 0.2
2017-Jan-18 03:32S 29°44' E 031°08'0 0.0
2017-Jan-18 02:32S 29°44' E 031°08'0 0.1
2017-Jan-18 01:32S 29°44' E 031°08'0 0.1
2017-Jan-18 00:23S 29°44' E 031°08'0 0.0
2017-Jan-17 23:29S 29°44' E 031°08'0 0.0
2017-Jan-17 22:32S 29°44' E 031°08'0 0.0
2017-Jan-17 21:32S 29°44' E 031°08'0 0.0
2017-Jan-17 20:32S 29°44' E 031°08'0 0.0
2017-Jan-17 19:29S 29°44' E 031°08'0 0.0
2017-Jan-17 18:32S 29°44' E 031°08'0 0.0
2017-Jan-17 17:32S 29°44' E 031°08'0 0.0
2017-Jan-17 16:32S 29°44' E 031°08'0 0.0
2017-Jan-17 15:32S 29°44' E 031°08'0 0.0
2017-Jan-17 14:32S 29°44' E 031°08'0 0.0
2017-Jan-17 13:32S 29°44' E 031°08'0 0.0
2017-Jan-17 12:32S 29°44' E 031°08'0 0.0
2017-Jan-17 11:32S 29°44' E 031°08'0 0.5
2017-Jan-17 10:33S 29°44' E 031°08'4 4.0
2017-Jan-17 09:33S 29°46' E 031°12'1413.7
2017-Jan-17 08:34S 29°60' E 031°12'9 8.6
2017-Jan-17 07:33S 30°07' E 031°07'7 7.2
2017-Jan-17 06:34S 30°13' E 031°02'8 8.2
2017-Jan-17 05:34S 30°20' E 030°58'  
Track history (hours):
 
Tides and Currents Weather Stations Pressure Air Temp Water Temp Dewpoint Dewpoint Depression Visibility Wind Speed Wind Dir Waves Ship Positions

MSC Ines

Last reported at 2017-Jan-18 13:25 UTC. Time now 2017-Jan-18 14:04 UTC.
Position S 29°53' E 031°01'.

Length 349 m; draft 13.3 m.

Type: Ship (hazmat cat A). MMSI: 356112000.

Date/timePositionNaut miles runAvg speedWind from/ knotsBaromVisibWave heightAir tempDewpointWater temp
2017-Jan-18 13:25S 29°53' E 031°01'0 0.0
2017-Jan-18 12:31S 29°53' E 031°01'1 1.3
2017-Jan-18 11:29S 29°53' E 031°03'3 3.5
2017-Jan-18 10:34S 29°50' E 031°05'6 6.2
2017-Jan-18 09:33S 29°44' E 031°08'0 0.1
2017-Jan-18 08:32S 29°44' E 031°08'0 0.0
2017-Jan-18 07:32S 29°44' E 031°08'0 0.0
2017-Jan-18 06:32S 29°44' E 031°08'0 0.0
2017-Jan-18 05:32S 29°44' E 031°08'0 0.0
2017-Jan-18 04:32S 29°44' E 031°08'0 0.2
2017-Jan-18 03:32S 29°44' E 031°08'0 0.0
2017-Jan-18 02:32S 29°44' E 031°08'0 0.1
2017-Jan-18 01:32S 29°44' E 031°08'0 0.1
2017-Jan-18 00:23S 29°44' E 031°08'0 0.0
2017-Jan-17 23:29S 29°44' E 031°08'0 0.0
2017-Jan-17 22:32S 29°44' E 031°08'0 0.0
2017-Jan-17 21:32S 29°44' E 031°08'0 0.0
2017-Jan-17 20:32S 29°44' E 031°08'0 0.0
2017-Jan-17 19:29S 29°44' E 031°08'0 0.0
2017-Jan-17 18:32S 29°44' E 031°08'0 0.0
2017-Jan-17 17:32S 29°44' E 031°08'0 0.0
2017-Jan-17 16:32S 29°44' E 031°08'0 0.0
2017-Jan-17 15:32S 29°44' E 031°08'0 0.0
2017-Jan-17 14:32S 29°44' E 031°08'0 0.0
2017-Jan-17 13:32S 29°44' E 031°08'0 0.0
2017-Jan-17 12:32S 29°44' E 031°08'0 0.0
2017-Jan-17 11:32S 29°44' E 031°08'0 0.5
2017-Jan-17 10:33S 29°44' E 031°08'4 4.0
2017-Jan-17 09:33S 29°46' E 031°12'1413.7
2017-Jan-17 08:34S 29°60' E 031°12'9 8.6
2017-Jan-17 07:33S 30°07' E 031°07'7 7.2
2017-Jan-17 06:34S 30°13' E 031°02'8 8.2
2017-Jan-17 05:34S 30°20' E 030°58'  

Dump ship's entire track history